Terminal Aerodrome Forecast
Issued by NWS Cleveland, OH

Home | Current Version | Previous Version | Text Only | Print | Product List | Glossary On
Versions: 1 2 3 4 5 6 7 8 9 10 11 12 13 14 15 16 17 18 19 20 21 22 23 24 25 26 27 28 29 30 31 32
000
FTUS41 KCLE 292110 AAB
TAFCLE
TAF AMD
KCLE 292110Z 2921/3024 20011KT P6SM SCT035 BKN120
      TEMPO 2923/2924 -TSRA BKN035CB
     FM300000 20008KT P6SM SCT035
     FM300800 VRB03KT 6SM BR SKC
     FM301400 29007KT P6SM SCT030=

USA.gov is the U.S. government's official web portal to all federal, state and local government web resources and services.